Time;durP1;ratioP1;P1;durP2;ratioP2;P2;SDS_P1;SDS_P2;PMS_P1;PMS_P2;Temp;Humidity;BMP_temperature;BMP_pressure;BME280_temperature;BME280_humidity;BME280_pressure;Samples;Min_cycle;Max_cycle;Signal;HPM_P1;HPM_P2
2022/03/24 00:01:18;;;;;;;;;;;7.00;99.90;;;;;;4926200;29;19962;-85
2022/03/24 00:03:46;;;;;;;;;;;6.90;99.90;;;;;;4891307;29;19932;-86
2022/03/24 00:06:15;;;;;;;;;;;6.90;99.90;;;;;;4905795;29;19928;-85
2022/03/24 00:08:43;;;;;;;;;;;6.80;99.90;;;;;;4903683;29;19943;-87
2022/03/24 00:11:11;;;;;;;;;;;6.80;99.90;;;;;;4906230;29;19931;-87
2022/03/24 00:13:39;;;;;;;;;;;6.80;99.90;;;;;;4923709;29;19927;-85
2022/03/24 00:16:09;;;;;;;;;;;6.80;99.90;;;;;;4923573;29;20343;-87
2022/03/24 00:18:37;;;;;;;;;;;6.80;99.90;;;;;;4908051;29;19934;-85
2022/03/24 00:21:04;;;;;;;;;;;6.70;99.90;;;;;;4929025;29;19926;-87
2022/03/24 00:23:32;;;;;;;;;;;6.80;99.90;;;;;;4925729;29;19938;-86
2022/03/24 00:26:01;;;;;;;;;;;6.70;99.90;;;;;;4942935;29;19927;-86
2022/03/24 00:28:29;;;;;;;;;;;6.70;99.90;;;;;;4925472;29;19927;-85
2022/03/24 00:30:57;;;;;;;;;;;6.60;99.90;;;;;;4909258;29;19938;-86
2022/03/24 00:33:27;;;;;;;;;;;6.60;99.90;;;;;;4924785;29;19931;-86
2022/03/24 00:35:55;;;;;;;;;;;6.50;99.90;;;;;;4925307;29;19938;-86
2022/03/24 00:38:26;;;;;;;;;;;6.50;99.90;;;;;;4926226;29;19926;-86
2022/03/24 00:40:55;;;;;;;;;;;6.40;99.90;;;;;;4926998;29;19926;-85
2022/03/24 00:43:24;;;;;;;;;;;6.30;99.90;;;;;;4941532;29;19927;-86
2022/03/24 00:45:52;;;;;;;;;;;6.30;99.90;;;;;;4927032;29;19938;-87
2022/03/24 00:48:20;;;;;;;;;;;6.30;99.90;;;;;;4927361;29;19950;-86
2022/03/24 00:50:50;;;;;;;;;;;6.20;99.90;;;;;;4910116;29;19927;-86
2022/03/24 00:53:18;;;;;;;;;;;6.20;99.90;;;;;;4944390;29;19941;-86
2022/03/24 00:55:47;;;;;;;;;;;6.10;99.90;;;;;;4926329;29;19934;-85
2022/03/24 00:58:15;;;;;;;;;;;6.10;99.90;;;;;;4926407;29;19930;-85
2022/03/24 01:00:44;;;;;;;;;;;6.10;99.90;;;;;;4895325;29;19938;-87
2022/03/24 01:03:12;;;;;;;;;;;6.00;99.90;;;;;;4939166;29;19931;-89
2022/03/24 01:05:43;;;;;;;;;;;6.00;99.90;;;;;;4891689;29;19927;-86
2022/03/24 01:08:13;;;;;;;;;;;5.90;99.90;;;;;;4906874;29;19954;-84
2022/03/24 01:10:46;;;;;;;;;;;5.90;99.90;;;;;;4926795;29;19938;-84
2022/03/24 01:13:15;;;;;;;;;;;5.80;99.90;;;;;;4943169;29;19933;-87
2022/03/24 01:15:45;;;;;;;;;;;5.90;99.90;;;;;;4943908;29;19941;-86
2022/03/24 01:18:14;;;;;;;;;;;5.80;99.90;;;;;;4961684;29;19941;-85
2022/03/24 01:20:41;;;;;;;;;;;5.80;99.90;;;;;;4960754;29;20371;-86
2022/03/24 01:23:11;;;;;;;;;;;5.80;99.90;;;;;;4928307;29;19927;-86
2022/03/24 01:25:42;;;;;;;;;;;5.80;99.90;;;;;;4926434;29;20464;-89
2022/03/24 01:28:17;;;;;;;;;;;5.80;99.90;;;;;;4925799;29;20175;-86
2022/03/24 01:30:46;;;;;;;;;;;5.80;99.90;;;;;;4908007;29;19930;-86
2022/03/24 01:33:15;;;;;;;;;;;5.80;99.90;;;;;;4940307;29;19933;-86
2022/03/24 01:35:45;;;;;;;;;;;5.70;99.90;;;;;;4923319;29;19937;-87
2022/03/24 01:38:15;;;;;;;;;;;5.70;99.90;;;;;;4940290;29;20002;-84
2022/03/24 01:40:43;;;;;;;;;;;5.60;99.90;;;;;;4916892;29;19946;-86
2022/03/24 01:43:11;;;;;;;;;;;5.60;99.90;;;;;;4941941;29;20417;-85
2022/03/24 01:45:39;;;;;;;;;;;5.60;99.90;;;;;;4949234;29;19938;-88
2022/03/24 01:48:11;;;;;;;;;;;5.60;99.90;;;;;;4924048;29;19927;-87
2022/03/24 01:50:40;;;;;;;;;;;5.60;99.90;;;;;;4955586;29;19927;-86
2022/03/24 01:53:10;;;;;;;;;;;5.60;99.90;;;;;;4908943;29;19934;-84
2022/03/24 01:55:41;;;;;;;;;;;5.60;99.90;;;;;;4898105;29;19927;-86
2022/03/24 01:58:11;;;;;;;;;;;5.50;99.90;;;;;;4928180;29;20271;-87
2022/03/24 02:00:41;;;;;;;;;;;5.50;99.90;;;;;;4942581;29;19927;-84
2022/03/24 02:03:14;;;;;;;;;;;5.50;99.90;;;;;;4910580;29;19927;-86
2022/03/24 02:05:43;;;;;;;;;;;5.50;99.90;;;;;;4920428;29;19931;-84
2022/03/24 02:08:12;;;;;;;;;;;5.40;99.90;;;;;;4903817;29;19927;-86
2022/03/24 02:10:42;;;;;;;;;;;5.40;99.90;;;;;;4914124;29;19927;-85
2022/03/24 02:13:10;;;;;;;;;;;5.30;99.90;;;;;;4907164;29;19943;-87
2022/03/24 02:15:38;;;;;;;;;;;5.30;99.90;;;;;;4921951;29;20440;-86
2022/03/24 02:18:09;;;;;;;;;;;5.20;99.90;;;;;;4923205;29;19931;-84
2022/03/24 02:20:39;;;;;;;;;;;5.20;99.90;;;;;;4923976;29;19934;-85
2022/03/24 02:23:07;;;;;;;;;;;5.20;99.90;;;;;;4919402;29;19934;-84
2022/03/24 02:25:35;;;;;;;;;;;5.20;99.90;;;;;;4907833;29;19927;-86
2022/03/24 02:28:03;;;;;;;;;;;6.00;99.90;;;;;;4923746;29;19927;-85
2022/03/24 02:30:31;;;;;;;;;;;5.10;99.90;;;;;;4904639;29;19934;-85
2022/03/24 02:32:58;;;;;;;;;;;5.10;99.90;;;;;;4918221;29;19938;-86
2022/03/24 02:35:26;;;;;;;;;;;5.00;99.90;;;;;;4905355;29;19927;-85
2022/03/24 02:37:55;;;;;;;;;;;5.00;99.90;;;;;;4922063;29;19942;-87
2022/03/24 02:40:25;;;;;;;;;;;5.00;99.90;;;;;;4894266;29;19927;-86
2022/03/24 02:42:53;;;;;;;;;;;4.90;99.90;;;;;;4923293;29;20363;-86
2022/03/24 02:45:20;;;;;;;;;;;4.90;99.90;;;;;;4905123;29;19943;-85
2022/03/24 02:47:49;;;;;;;;;;;4.90;99.90;;;;;;4922580;29;20410;-84
2022/03/24 02:50:17;;;;;;;;;;;4.90;99.90;;;;;;4891401;29;19927;-86
2022/03/24 02:52:46;;;;;;;;;;;4.90;99.90;;;;;;4905119;29;19939;-86
2022/03/24 02:55:14;;;;;;;;;;;4.80;99.90;;;;;;4908932;29;19934;-87
2022/03/24 02:57:42;;;;;;;;;;;4.80;99.90;;;;;;4941055;29;19926;-85
2022/03/24 03:00:10;;;;;;;;;;;4.80;99.90;;;;;;4943564;29;19963;-87
2022/03/24 03:02:38;;;;;;;;;;;4.80;99.90;;;;;;4951648;29;19930;-87
2022/03/24 03:05:07;;;;;;;;;;;4.70;99.90;;;;;;4908252;29;19927;-85
2022/03/24 03:07:35;;;;;;;;;;;4.70;99.90;;;;;;4924324;29;19941;-86
2022/03/24 03:10:03;;;;;;;;;;;4.60;99.90;;;;;;4941169;29;19942;-85
2022/03/24 03:12:31;;;;;;;;;;;4.50;99.90;;;;;;4924738;29;19938;-85
2022/03/24 03:14:59;;;;;;;;;;;4.60;99.90;;;;;;4928304;29;20383;-86
2022/03/24 03:17:29;;;;;;;;;;;4.70;99.90;;;;;;4943005;29;19943;-88
2022/03/24 03:19:57;;;;;;;;;;;4.60;99.90;;;;;;4925592;29;19927;-87
2022/03/24 03:22:26;;;;;;;;;;;4.50;99.90;;;;;;4926901;29;19942;-89
2022/03/24 03:24:55;;;;;;;;;;;4.50;99.90;;;;;;4895883;29;19931;-86
2022/03/24 03:27:24;;;;;;;;;;;4.50;99.90;;;;;;4961462;29;19942;-86
2022/03/24 03:29:53;;;;;;;;;;;4.50;99.90;;;;;;4965334;29;19934;-86
2022/03/24 03:32:21;;;;;;;;;;;4.40;99.90;;;;;;4932028;29;20386;-89
2022/03/24 03:34:53;;;;;;;;;;;4.50;99.90;;;;;;4947574;29;19962;-89
2022/03/24 03:37:22;;;;;;;;;;;4.40;99.90;;;;;;4898517;29;19935;-86
2022/03/24 03:39:50;;;;;;;;;;;4.50;99.90;;;;;;4950369;29;19926;-84
2022/03/24 03:42:18;;;;;;;;;;;4.80;99.90;;;;;;4947788;29;19946;-85
2022/03/24 03:44:45;;;;;;;;;;;4.40;99.90;;;;;;4965120;29;20733;-85
2022/03/24 03:47:15;;;;;;;;;;;4.40;99.90;;;;;;4948454;29;19926;-84
2022/03/24 03:49:42;;;;;;;;;;;4.40;99.90;;;;;;4928349;29;19927;-85
2022/03/24 03:52:24;;;;;;;;;;;4.40;99.90;;;;;;4926332;29;19938;-86
2022/03/24 03:54:56;;;;;;;;;;;4.30;99.90;;;;;;4908071;29;19923;-85
2022/03/24 03:57:24;;;;;;;;;;;4.30;99.90;;;;;;4939167;29;19927;-84
2022/03/24 03:59:52;;;;;;;;;;;4.20;99.90;;;;;;4944203;29;19927;-85
2022/03/24 04:02:21;;;;;;;;;;;5.60;99.90;;;;;;4947251;29;19930;-85
2022/03/24 04:04:50;;;;;;;;;;;4.10;99.90;;;;;;4908645;29;19934;-86
2022/03/24 04:07:18;;;;;;;;;;;4.10;99.90;;;;;;4908117;29;19938;-85
2022/03/24 04:09:46;;;;;;;;;;;5.00;99.90;;;;;;4930444;29;19931;-87
2022/03/24 04:12:14;;;;;;;;;;;4.00;99.90;;;;;;4956461;29;19942;-86
2022/03/24 04:14:42;;;;;;;;;;;4.00;99.90;;;;;;4928712;29;19927;-86
2022/03/24 04:17:10;;;;;;;;;;;4.00;99.90;;;;;;4913634;29;19927;-85
2022/03/24 04:19:38;;;;;;;;;;;3.90;99.90;;;;;;4945517;29;19927;-85
2022/03/24 04:22:09;;;;;;;;;;;3.90;99.90;;;;;;4894748;29;19939;-86
2022/03/24 04:24:38;;;;;;;;;;;3.90;99.90;;;;;;4910369;29;19928;-86
2022/03/24 04:27:06;;;;;;;;;;;4.10;99.90;;;;;;4913173;29;19928;-84
2022/03/24 04:29:34;;;;;;;;;;;3.80;99.90;;;;;;4912330;29;19931;-84
2022/03/24 04:32:01;;;;;;;;;;;3.80;99.90;;;;;;4915439;29;19931;-84
2022/03/24 04:34:29;;;;;;;;;;;3.80;99.90;;;;;;4908876;29;19927;-85
2022/03/24 04:36:57;;;;;;;;;;;3.80;99.90;;;;;;4905843;29;19928;-86
2022/03/24 04:39:25;;;;;;;;;;;3.80;99.90;;;;;;4905744;29;19943;-86
2022/03/24 04:41:53;;;;;;;;;;;3.70;99.90;;;;;;4887338;29;20308;-85
2022/03/24 04:44:21;;;;;;;;;;;3.70;99.90;;;;;;4887424;29;19928;-86
2022/03/24 04:46:49;;;;;;;;;;;3.60;99.90;;;;;;4885712;29;19928;-86
2022/03/24 04:49:18;;;;;;;;;;;3.60;99.90;;;;;;4873339;29;19928;-85
2022/03/24 04:51:47;;;;;;;;;;;3.60;99.90;;;;;;4870323;29;19938;-85
2022/03/24 04:54:15;;;;;;;;;;;3.60;99.90;;;;;;4884041;29;19932;-87
2022/03/24 04:56:44;;;;;;;;;;;3.50;99.90;;;;;;4894522;29;19927;-85
2022/03/24 04:59:12;;;;;;;;;;;3.50;99.90;;;;;;4904990;29;19938;-84
2022/03/24 05:01:40;;;;;;;;;;;3.50;99.90;;;;;;4903444;29;19935;-85
2022/03/24 05:04:08;;;;;;;;;;;3.50;99.90;;;;;;4882592;29;19938;-84
2022/03/24 05:06:36;;;;;;;;;;;3.50;99.90;;;;;;4885177;29;19951;-84
2022/03/24 05:09:03;;;;;;;;;;;3.50;99.90;;;;;;4882943;29;19938;-86
2022/03/24 05:11:31;;;;;;;;;;;3.50;99.90;;;;;;4884032;29;19927;-85
2022/03/24 05:13:59;;;;;;;;;;;3.40;99.90;;;;;;4868372;29;19928;-84
2022/03/24 05:16:27;;;;;;;;;;;3.50;99.90;;;;;;4884284;29;19939;-85
2022/03/24 05:18:55;;;;;;;;;;;3.50;99.90;;;;;;4897309;29;19938;-86
2022/03/24 05:21:24;;;;;;;;;;;3.50;99.90;;;;;;4919500;29;19927;-84
2022/03/24 05:23:52;;;;;;;;;;;3.40;99.90;;;;;;4924298;29;20398;-84
2022/03/24 05:26:23;;;;;;;;;;;3.40;99.90;;;;;;4939579;29;20425;-85
2022/03/24 05:28:52;;;;;;;;;;;3.40;99.90;;;;;;4942010;29;19931;-85
2022/03/24 05:31:23;;;;;;;;;;;3.40;99.90;;;;;;4923684;29;20090;-86
2022/03/24 05:33:51;;;;;;;;;;;3.40;99.90;;;;;;4905219;29;19927;-85
2022/03/24 05:36:22;;;;;;;;;;;3.00;99.90;;;;;;4907398;29;20319;-84
2022/03/24 05:38:56;;;;;;;;;;;3.30;99.90;;;;;;4929897;29;19941;-84
2022/03/24 05:41:24;;;;;;;;;;;3.30;99.90;;;;;;4957684;29;19933;-85
2022/03/24 05:44:03;;;;;;;;;;;2.40;99.90;;;;;;4928668;29;19937;-85
2022/03/24 05:46:44;;;;;;;;;;;3.20;99.90;;;;;;4919337;29;19930;-83
2022/03/24 05:49:14;;;;;;;;;;;3.20;99.90;;;;;;4907843;29;19927;-86
2022/03/24 05:52:07;;;;;;;;;;;3.20;99.90;;;;;;4880440;29;19931;-85
2022/03/24 05:54:35;;;;;;;;;;;3.20;99.90;;;;;;4907656;29;20057;-85
2022/03/24 05:57:04;;;;;;;;;;;3.20;99.90;;;;;;4919088;29;19927;-85
2022/03/24 05:59:35;;;;;;;;;;;3.60;99.90;;;;;;4927005;29;19927;-84
2022/03/24 06:02:03;;;;;;;;;;;3.20;99.90;;;;;;4925198;29;19927;-82
2022/03/24 06:04:32;;;;;;;;;;;3.20;99.90;;;;;;4925982;29;20496;-84
2022/03/24 06:07:01;;;;;;;;;;;3.20;99.90;;;;;;4928028;29;19927;-85
2022/03/24 06:09:31;;;;;;;;;;;3.30;99.90;;;;;;4941549;29;19927;-83
2022/03/24 06:11:59;;;;;;;;;;;3.30;99.90;;;;;;4945891;29;19941;-84
2022/03/24 06:14:31;;;;;;;;;;;3.20;99.90;;;;;;4930301;29;19937;-84
2022/03/24 06:17:01;;;;;;;;;;;3.30;99.90;;;;;;4920835;29;20500;-84
2022/03/24 06:19:32;;;;;;;;;;;3.30;99.90;;;;;;4907324;29;20026;-84
2022/03/24 06:21:59;;;;;;;;;;;3.30;99.90;;;;;;4917623;29;19938;-86
2022/03/24 06:24:32;;;;;;;;;;;3.30;99.90;;;;;;4944025;29;20283;-86
2022/03/24 06:27:01;;;;;;;;;;;3.30;99.90;;;;;;4961859;29;19938;-85
2022/03/24 06:29:31;;;;;;;;;;;3.40;99.90;;;;;;4943659;29;19926;-85
2022/03/24 06:31:59;;;;;;;;;;;3.40;99.90;;;;;;4908900;29;19926;-85
2022/03/24 06:34:29;;;;;;;;;;;3.50;99.90;;;;;;4925425;29;19937;-87
2022/03/24 06:36:57;;;;;;;;;;;3.50;99.90;;;;;;4943810;29;19937;-86
2022/03/24 06:39:32;;;;;;;;;;;3.60;99.90;;;;;;4912528;29;19930;-87
2022/03/24 06:42:05;;;;;;;;;;;3.60;99.90;;;;;;4963871;29;19938;-85
2022/03/24 06:44:36;;;;;;;;;;;3.70;99.90;;;;;;4928742;29;19927;-88
2022/03/24 06:47:04;;;;;;;;;;;3.70;99.90;;;;;;4909234;29;19937;-88
2022/03/24 06:49:38;;;;;;;;;;;3.80;99.90;;;;;;4891571;29;19938;-85
2022/03/24 06:52:10;;;;;;;;;;;3.90;99.90;;;;;;4913794;29;19931;-86
2022/03/24 06:54:40;;;;;;;;;;;3.90;99.90;;;;;;4941303;29;19931;-85
2022/03/24 06:57:14;;;;;;;;;;;4.00;99.90;;;;;;4925950;29;19931;-87
2022/03/24 06:59:43;;;;;;;;;;;4.10;99.90;;;;;;4904281;29;20066;-84
2022/03/24 07:02:11;;;;;;;;;;;4.10;99.90;;;;;;4929155;29;19931;-84
2022/03/24 07:04:39;;;;;;;;;;;4.20;99.90;;;;;;4904592;29;19938;-87
2022/03/24 07:07:09;;;;;;;;;;;4.30;99.90;;;;;;4923814;29;19938;-84
2022/03/24 07:09:39;;;;;;;;;;;4.40;99.90;;;;;;4933569;29;19927;-85
2022/03/24 07:12:08;;;;;;;;;;;4.40;99.90;;;;;;4935483;29;19931;-85
2022/03/24 07:14:36;;;;;;;;;;;4.50;99.90;;;;;;4925170;29;19938;-86
2022/03/24 07:17:04;;;;;;;;;;;4.60;99.90;;;;;;4905482;29;19938;-86
2022/03/24 07:19:33;;;;;;;;;;;4.60;99.90;;;;;;4938976;29;19927;-88
2022/03/24 07:22:03;;;;;;;;;;;4.80;99.90;;;;;;4908090;29;19926;-88
2022/03/24 07:24:33;;;;;;;;;;;4.80;99.90;;;;;;4922386;29;19927;-86
2022/03/24 07:27:02;;;;;;;;;;;4.90;99.90;;;;;;4919967;29;19927;-86
2022/03/24 07:29:32;;;;;;;;;;;5.00;99.90;;;;;;4919974;29;19931;-87
2022/03/24 07:32:01;;;;;;;;;;;5.10;99.90;;;;;;4907628;29;19935;-87
2022/03/24 07:34:30;;;;;;;;;;;5.20;99.90;;;;;;4925302;29;19926;-87
2022/03/24 07:36:58;;;;;;;;;;;5.30;99.90;;;;;;4920601;29;19934;-86
2022/03/24 07:39:27;;;;;;;;;;;5.40;99.90;;;;;;4934390;29;20466;-88
2022/03/24 07:41:55;;;;;;;;;;;5.50;99.90;;;;;;4901290;29;19931;-86
2022/03/24 07:44:22;;;;;;;;;;;6.30;99.90;;;;;;4914090;29;19927;-92
2022/03/24 07:46:55;;;;;;;;;;;5.70;99.90;;;;;;4904010;29;19935;-87
2022/03/24 07:49:26;;;;;;;;;;;5.80;99.90;;;;;;4911957;29;19931;-88
2022/03/24 07:51:57;;;;;;;;;;;5.90;99.90;;;;;;4922607;29;19927;-87
2022/03/24 07:54:48;;;;;;;;;;;6.10;99.90;;;;;;4922622;29;19927;-88
2022/03/24 07:57:17;;;;;;;;;;;6.20;99.90;;;;;;4920403;29;19931;-86
2022/03/24 07:59:48;;;;;;;;;;;6.30;99.90;;;;;;4916808;29;20126;-86
2022/03/24 08:02:19;;;;;;;;;;;6.50;99.90;;;;;;4924313;29;19926;-86
2022/03/24 08:04:57;;;;;;;;;;;6.60;99.90;;;;;;4927024;29;19935;-86
2022/03/24 08:07:41;;;;;;;;;;;7.00;99.90;;;;;;4914770;29;19927;-88
2022/03/24 08:10:09;;;;;;;;;;;6.80;99.90;;;;;;4929329;29;19930;-88
2022/03/24 08:12:37;;;;;;;;;;;7.00;99.90;;;;;;4933285;29;19934;-87
2022/03/24 08:15:07;;;;;;;;;;;7.10;99.90;;;;;;4909452;29;19927;-88
2022/03/24 08:17:37;;;;;;;;;;;7.20;99.90;;;;;;4942269;29;20386;-87
2022/03/24 08:20:06;;;;;;;;;;;7.30;99.90;;;;;;4945382;29;19931;-86
2022/03/24 08:22:34;;;;;;;;;;;7.40;99.90;;;;;;4929179;29;19938;-87
2022/03/24 08:25:08;;;;;;;;;;;7.50;99.90;;;;;;4947877;29;20486;-89
2022/03/24 08:27:41;;;;;;;;;;;7.60;99.90;;;;;;4924286;29;19934;-85
2022/03/24 08:30:10;;;;;;;;;;;7.80;99.90;;;;;;4923854;29;19933;-84
2022/03/24 08:32:37;;;;;;;;;;;7.90;99.90;;;;;;4935594;29;19934;-84
2022/03/24 08:35:08;;;;;;;;;;;8.00;99.90;;;;;;4940668;29;19937;-84
2022/03/24 08:37:37;;;;;;;;;;;8.90;99.90;;;;;;4925716;29;20452;-84
2022/03/24 08:40:06;;;;;;;;;;;8.30;99.90;;;;;;4953648;29;19933;-85
2022/03/24 08:42:42;;;;;;;;;;;8.40;99.90;;;;;;4911253;29;19935;-87
2022/03/24 08:45:11;;;;;;;;;;;8.50;99.90;;;;;;4914548;29;19937;-87
2022/03/24 08:47:41;;;;;;;;;;;8.60;99.90;;;;;;4922156;29;19938;-86
2022/03/24 08:50:13;;;;;;;;;;;8.70;99.90;;;;;;4933634;29;20444;-86
2022/03/24 08:52:42;;;;;;;;;;;8.80;99.90;;;;;;4904619;29;19931;-87
2022/03/24 08:55:13;;;;;;;;;;;8.90;99.90;;;;;;4922297;29;19927;-87
2022/03/24 08:57:42;;;;;;;;;;;9.00;99.90;;;;;;4897467;29;19938;-89
2022/03/24 09:00:13;;;;;;;;;;;9.10;99.90;;;;;;4917485;29;19927;-86
2022/03/24 09:02:46;;;;;;;;;;;9.20;99.90;;;;;;4936536;29;19933;-85
2022/03/24 09:05:36;;;;;;;;;;;9.30;99.90;;;;;;4922133;29;19950;-87
2022/03/24 09:08:06;;;;;;;;;;;9.50;99.90;;;;;;4915694;29;19938;-88
2022/03/24 09:10:35;;;;;;;;;;;9.50;99.90;;;;;;4905944;29;19938;-85
2022/03/24 09:13:12;;;;;;;;;;;9.60;99.90;;;;;;4930405;29;19938;-86
2022/03/24 09:15:44;;;;;;;;;;;9.80;99.90;;;;;;4923152;29;19934;-86
2022/03/24 09:18:14;;;;;;;;;;;9.90;99.90;;;;;;4935250;29;19940;-85
2022/03/24 09:20:42;;;;;;;;;;;10.00;99.90;;;;;;4921098;29;19931;-85
2022/03/24 09:23:11;;;;;;;;;;;10.10;99.90;;;;;;4931057;29;19935;-86
2022/03/24 09:25:43;;;;;;;;;;;10.20;99.90;;;;;;4923254;29;19927;-88
2022/03/24 09:28:12;;;;;;;;;;;10.30;99.90;;;;;;4938504;29;19926;-88
2022/03/24 09:30:41;;;;;;;;;;;10.50;99.70;;;;;;4918311;29;20379;-86
2022/03/24 09:33:10;;;;;;;;;;;10.60;99.20;;;;;;4893164;29;20311;-86
2022/03/24 09:35:38;;;;;;;;;;;10.70;99.30;;;;;;4921142;29;20311;-87
2022/03/24 09:38:10;;;;;;;;;;;10.30;99.00;;;;;;4919564;29;22067;-88
2022/03/24 09:40:39;;;;;;;;;;;11.00;99.10;;;;;;4893905;29;19931;-88
2022/03/24 09:43:07;;;;;;;;;;;11.10;98.90;;;;;;4914000;29;20387;-87
2022/03/24 09:45:40;;;;;;;;;;;11.20;98.70;;;;;;4902349;29;20410;-90
2022/03/24 09:48:15;;;;;;;;;;;11.30;98.20;;;;;;4905727;29;19927;-89
2022/03/24 09:50:47;;;;;;;;;;;11.50;98.20;;;;;;4934454;29;20398;-88
2022/03/24 09:53:16;;;;;;;;;;;11.60;97.30;;;;;;4926010;29;19942;-88
2022/03/24 09:55:46;;;;;;;;;;;11.70;97.20;;;;;;4926125;29;19935;-91
2022/03/24 09:58:16;;;;;;;;;;;11.80;96.70;;;;;;4909500;29;19938;-88
2022/03/24 10:00:47;;;;;;;;;;;12.00;96.80;;;;;;4931675;29;19931;-87
2022/03/24 10:03:18;;;;;;;;;;;12.10;96.80;;;;;;4938401;29;19953;-87
2022/03/24 10:06:07;;;;;;;;;;;12.20;95.60;;;;;;4902032;29;19935;-88
2022/03/24 10:08:36;;;;;;;;;;;12.40;95.20;;;;;;4934912;29;20092;-86
2022/03/24 10:11:06;;;;;;;;;;;12.50;96.10;;;;;;4923758;29;19927;-87
2022/03/24 10:13:45;;;;;;;;;;;12.60;95.10;;;;;;4924506;29;20314;-89
2022/03/24 10:16:34;;;;;;;;;;;12.80;95.20;;;;;;4907060;29;19927;-87
2022/03/24 10:19:09;;;;;;;;;;;12.90;95.00;;;;;;4934749;29;19927;-86
2022/03/24 10:21:40;;;;;;;;;;;13.00;94.80;;;;;;4904555;29;19927;-86
2022/03/24 10:24:14;;;;;;;;;;;13.20;94.50;;;;;;4904338;29;19937;-86
2022/03/24 10:26:44;;;;;;;;;;;13.30;94.10;;;;;;4883099;29;19928;-86
2022/03/24 10:29:13;;;;;;;;;;;13.50;93.20;;;;;;4899555;29;19931;-90
2022/03/24 10:31:43;;;;;;;;;;;13.60;93.60;;;;;;4902884;29;19928;-89
2022/03/24 10:34:12;;;;;;;;;;;13.70;93.10;;;;;;4905840;29;19930;-86
2022/03/24 10:36:41;;;;;;;;;;;13.90;92.90;;;;;;4896968;29;19931;-87
2022/03/24 10:39:09;;;;;;;;;;;14.00;92.70;;;;;;4911107;29;19931;-88
2022/03/24 10:41:38;;;;;;;;;;;15.20;92.40;;;;;;4912884;29;20299;-87
2022/03/24 10:44:12;;;;;;;;;;;14.20;91.60;;;;;;4887512;29;19939;-89
2022/03/24 10:46:43;;;;;;;;;;;14.40;91.20;;;;;;4894637;29;19928;-86
2022/03/24 10:49:20;;;;;;;;;;;14.50;89.90;;;;;;4901617;29;20399;-86
2022/03/24 10:51:53;;;;;;;;;;;14.60;91.40;;;;;;4900957;29;19929;-86
2022/03/24 10:54:25;;;;;;;;;;;14.80;88.80;;;;;;4878225;29;19931;-86
2022/03/24 10:57:00;;;;;;;;;;;14.90;90.10;;;;;;4901919;29;19928;-87
2022/03/24 10:59:29;;;;;;;;;;;15.10;89.50;;;;;;4875184;29;19928;-87
2022/03/24 11:01:59;;;;;;;;;;;15.20;90.00;;;;;;4899983;29;19934;-86
2022/03/24 11:04:28;;;;;;;;;;;15.20;87.70;;;;;;4902454;29;20268;-87
2022/03/24 11:06:57;;;;;;;;;;;13.90;85.90;;;;;;4887736;29;19931;-86
2022/03/24 11:09:27;;;;;;;;;;;15.50;86.70;;;;;;4887342;29;19938;-88
2022/03/24 11:12:14;;;;;;;;;;;15.60;87.90;;;;;;4879556;29;19931;-85
2022/03/24 11:14:42;;;;;;;;;;;15.70;87.20;;;;;;4894885;29;19935;-88
2022/03/24 11:17:09;;;;;;;;;;;15.80;83.50;;;;;;4888253;29;20470;-85
2022/03/24 11:19:38;;;;;;;;;;;15.90;83.80;;;;;;4882246;29;20528;-88
2022/03/24 11:22:10;;;;;;;;;;;16.10;80.00;;;;;;4923226;29;19938;-89
2022/03/24 11:24:40;;;;;;;;;;;16.20;83.10;;;;;;4910752;29;19935;-87
2022/03/24 11:27:09;;;;;;;;;;;16.30;75.20;;;;;;4924642;29;19931;-88
2022/03/24 11:29:37;;;;;;;;;;;16.40;76.00;;;;;;4904101;29;19938;-88
2022/03/24 11:32:07;;;;;;;;;;;16.50;75.20;;;;;;4922456;29;20476;-87
2022/03/24 11:34:36;;;;;;;;;;;16.70;75.50;;;;;;4908518;29;19946;-88
2022/03/24 11:37:07;;;;;;;;;;;16.80;76.20;;;;;;4938701;23;19956;-88
2022/03/24 11:39:34;;;;;;;;;;;16.90;73.10;;;;;;4929074;28;19933;-86
2022/03/24 11:42:03;;;;;;;;;;;17.00;71.90;;;;;;4950474;28;19926;-88
2022/03/24 11:44:33;;;;;;;;;;;17.10;72.90;;;;;;4968809;28;19933;-87
2022/03/24 11:47:12;;;;;;;;;;;17.20;68.10;;;;;;4944555;29;19937;-87
2022/03/24 11:50:07;;;;;;;;;;;17.40;70.00;;;;;;4933340;29;20282;-87
2022/03/24 11:52:37;;;;;;;;;;;17.50;70.20;;;;;;4967443;29;19933;-88
2022/03/24 11:55:12;;;;;;;;;;;17.50;71.70;;;;;;4949832;29;19953;-88
2022/03/24 11:57:42;;;;;;;;;;;17.60;68.90;;;;;;4936754;29;19926;-88
2022/03/24 12:00:16;;;;;;;;;;;17.70;68.90;;;;;;4942762;29;19934;-87
2022/03/24 12:02:48;;;;;;;;;;;17.80;67.40;;;;;;4968366;29;19937;-88
2022/03/24 12:05:17;;;;;;;;;;;17.80;69.40;;;;;;4961078;29;20277;-88
2022/03/24 12:07:46;;;;;;;;;;;17.90;70.80;;;;;;4930396;29;19927;-85
2022/03/24 12:10:29;;;;;;;;;;;18.00;69.70;;;;;;4968826;28;19937;-87
2022/03/24 12:13:02;;;;;;;;;;;18.10;68.00;;;;;;4937229;29;19938;-87
2022/03/24 12:15:31;;;;;;;;;;;18.10;66.10;;;;;;4944854;29;19937;-90
2022/03/24 12:18:00;;;;;;;;;;;18.10;68.00;;;;;;4960094;29;20378;-88
2022/03/24 12:20:38;;;;;;;;;;;18.20;66.50;;;;;;4942535;29;19927;-87
2022/03/24 12:23:09;;;;;;;;;;;18.30;67.60;;;;;;4957986;29;19933;-88
2022/03/24 12:25:38;;;;;;;;;;;18.40;65.60;;;;;;4941809;29;19930;-87
2022/03/24 12:28:10;;;;;;;;;;;18.40;67.50;;;;;;4951037;29;19940;-91
2022/03/24 12:30:49;;;;;;;;;;;18.50;66.00;;;;;;4927878;29;19930;-90
2022/03/24 12:33:34;;;;;;;;;;;18.60;65.60;;;;;;4949762;29;19926;-90
2022/03/24 12:36:05;;;;;;;;;;;18.80;64.60;;;;;;4968405;29;20226;-87
2022/03/24 12:38:34;;;;;;;;;;;18.70;65.10;;;;;;4963977;29;19926;-88
2022/03/24 12:41:14;;;;;;;;;;;18.80;63.10;;;;;;4947228;29;19930;-86
2022/03/24 12:43:46;;;;;;;;;;;18.90;61.80;;;;;;4938294;29;19917;-87
2022/03/24 12:46:26;;;;;;;;;;;19.00;65.20;;;;;;4943464;29;19914;-87
2022/03/24 12:49:00;;;;;;;;;;;19.00;60.60;;;;;;4926778;29;19931;-87
2022/03/24 12:51:47;;;;;;;;;;;19.00;62.60;;;;;;4942913;29;19927;-88
2022/03/24 12:54:17;;;;;;;;;;;19.10;62.50;;;;;;4947667;29;19915;-87
2022/03/24 12:56:48;;;;;;;;;;;19.20;61.00;;;;;;4934933;29;20011;-88
2022/03/24 12:59:18;;;;;;;;;;;19.30;61.20;;;;;;4944544;29;19942;-88
2022/03/24 13:01:46;;;;;;;;;;;19.40;60.60;;;;;;4948308;29;19933;-89
2022/03/24 13:04:33;;;;;;;;;;;19.50;60.80;;;;;;4920061;29;19926;-87
2022/03/24 13:07:10;;;;;;;;;;;19.60;57.80;;;;;;4947273;29;19946;-86
2022/03/24 13:09:39;;;;;;;;;;;19.60;59.50;;;;;;4936081;28;19927;-88
2022/03/24 13:12:12;;;;;;;;;;;19.70;57.70;;;;;;4934354;29;19935;-86
2022/03/24 13:14:45;;;;;;;;;;;19.80;58.20;;;;;;4930960;29;20362;-87
2022/03/24 13:17:26;;;;;;;;;;;19.90;58.70;;;;;;4916878;29;19927;-88
2022/03/24 13:20:04;;;;;;;;;;;20.00;57.30;;;;;;4965146;29;19931;-89
2022/03/24 13:22:49;;;;;;;;;;;20.00;56.80;;;;;;4906917;29;19935;-88
2022/03/24 13:25:21;;;;;;;;;;;20.10;58.10;;;;;;4902076;29;19930;-88
2022/03/24 13:27:54;;;;;;;;;;;20.20;57.90;;;;;;4934946;29;19949;-89
2022/03/24 13:30:25;;;;;;;;;;;20.20;55.70;;;;;;4945296;29;19936;-88
2022/03/24 13:33:03;;;;;;;;;;;20.30;57.60;;;;;;4957300;28;19934;-86
2022/03/24 13:35:37;;;;;;;;;;;20.30;55.40;;;;;;4946109;29;19937;-86
2022/03/24 13:38:07;;;;;;;;;;;20.40;57.50;;;;;;4941672;29;19927;-88
2022/03/24 13:40:49;;;;;;;;;;;20.40;55.70;;;;;;4925041;29;19926;-89
2022/03/24 13:43:25;;;;;;;;;;;20.50;54.90;;;;;;4910996;29;19927;-87
2022/03/24 13:45:57;;;;;;;;;;;21.20;55.80;;;;;;4909045;29;19933;-88
2022/03/24 13:48:28;;;;;;;;;;;20.50;55.40;;;;;;4909132;29;19930;-88
2022/03/24 13:51:12;;;;;;;;;;;20.60;54.60;;;;;;4944537;29;19930;-88
2022/03/24 13:53:44;;;;;;;;;;;20.60;54.30;;;;;;4942055;29;19933;-87
2022/03/24 13:56:17;;;;;;;;;;;20.70;55.40;;;;;;4922079;28;19941;-89
2022/03/24 13:58:59;;;;;;;;;;;20.70;53.30;;;;;;4943627;29;19934;-87
2022/03/24 14:01:54;;;;;;;;;;;20.80;53.70;;;;;;4911139;28;19937;-86
2022/03/24 14:04:23;;;;;;;;;;;21.10;54.60;;;;;;4933896;29;19930;-89
2022/03/24 14:07:07;;;;;;;;;;;21.10;53.70;;;;;;4916100;29;19933;-88
2022/03/24 14:09:58;;;;;;;;;;;21.30;54.00;;;;;;4935229;28;20394;-88
2022/03/24 14:12:49;;;;;;;;;;;21.50;52.00;;;;;;4933573;29;19931;-87
2022/03/24 14:15:22;;;;;;;;;;;21.60;54.20;;;;;;4938879;29;19927;-88
2022/03/24 14:18:16;;;;;;;;;;;22.00;51.20;;;;;;4943427;29;19938;-89
2022/03/24 14:20:50;;;;;;;;;;;21.90;53.70;;;;;;4930262;29;19937;-88
2022/03/24 14:23:27;;;;;;;;;;;22.20;51.40;;;;;;4904028;29;19939;-89
2022/03/24 14:26:03;;;;;;;;;;;22.30;51.20;;;;;;4932867;28;19926;-88
2022/03/24 14:28:40;;;;;;;;;;;22.40;50.90;;;;;;4932831;29;19938;-89
2022/03/24 14:31:13;;;;;;;;;;;22.60;51.60;;;;;;4936836;29;19933;-86
2022/03/24 14:33:50;;;;;;;;;;;22.80;51.10;;;;;;4913493;29;19934;-85
2022/03/24 14:36:19;;;;;;;;;;;23.00;49.60;;;;;;4956327;29;19927;-87
2022/03/24 14:39:07;;;;;;;;;;;23.10;50.00;;;;;;4951122;29;19937;-85
2022/03/24 14:41:39;;;;;;;;;;;23.20;51.00;;;;;;4951019;29;19930;-84
2022/03/24 14:44:23;;;;;;;;;;;23.30;50.50;;;;;;4933666;29;19938;-86
2022/03/24 14:46:55;;;;;;;;;;;23.40;50.10;;;;;;4919481;29;20468;-84
2022/03/24 14:49:27;;;;;;;;;;;23.60;50.70;;;;;;4925914;29;19927;-88